Time;durP1;ratioP1;P1;durP2;ratioP2;P2;SDS_P1;SDS_P2;PMS_P1;PMS_P2;Temp;Humidity;BMP_temperature;BMP_pressure;BME280_temperature;BME280_humidity;BME280_pressure;Samples;Min_cycle;Max_cycle;Signal;HPM_P1;HPM_P2
2022/06/19 05:57:24;;;;;;;4.40;3.97;;;24.60;94.30;;;;;;6209224;28;88175;-94
2022/06/19 06:00:26;;;;;;;4.68;4.28;;;24.60;94.40;;;;;;6210925;28;89168;-94
2022/06/19 06:03:28;;;;;;;4.20;3.90;;;24.60;94.50;;;;;;6209918;28;89085;-95
2022/06/19 06:06:33;;;;;;;4.00;3.65;;;24.60;94.50;;;;;;6208787;28;89076;-96
2022/06/19 06:09:35;;;;;;;4.80;3.90;;;24.60;94.50;;;;;;6209633;28;87067;-94
2022/06/19 06:12:39;;;;;;;4.20;3.72;;;24.60;94.60;;;;;;6209485;28;88269;-95
2022/06/19 06:15:45;;;;;;;4.60;4.05;;;24.60;94.70;;;;;;6209775;28;88338;-94
2022/06/19 06:18:49;;;;;;;4.57;4.10;;;24.70;94.80;;;;;;6208891;28;87316;-94
2022/06/19 06:21:51;;;;;;;4.20;3.80;;;24.60;94.80;;;;;;6210726;28;88379;-93
2022/06/19 06:24:53;;;;;;;5.32;4.03;;;24.70;95.00;;;;;;6209339;28;89409;-94
2022/06/19 06:27:57;;;;;;;4.45;4.00;;;24.70;95.00;;;;;;6209226;28;90249;-94
2022/06/19 06:31:00;;;;;;;4.30;4.00;;;24.60;95.00;;;;;;6209572;28;89153;-95
2022/06/19 06:34:03;;;;;;;4.47;4.07;;;24.60;95.10;;;;;;6208168;28;89313;-94
2022/06/19 06:37:06;;;;;;;4.32;3.92;;;24.60;95.20;;;;;;6208089;28;89013;-95
2022/06/19 06:40:10;;;;;;;4.97;4.13;;;24.60;95.20;;;;;;6207963;28;89031;-94
2022/06/19 06:43:14;;;;;;;4.55;4.13;;;24.70;95.20;;;;;;6206229;28;88532;-94
2022/06/19 06:46:19;;;;;;;4.93;4.07;;;24.60;95.20;;;;;;6207682;28;87982;-94
2022/06/19 06:49:22;;;;;;;5.43;4.47;;;24.70;95.30;;;;;;6208052;28;88371;-94
2022/06/19 06:52:24;;;;;;;5.13;4.07;;;24.70;95.30;;;;;;6210868;28;88990;-95
2022/06/19 06:55:26;;;;;;;4.50;4.10;;;24.70;95.40;;;;;;6209965;28;89477;-95
2022/06/19 06:58:30;;;;;;;4.80;4.30;;;24.70;95.80;;;;;;6209541;28;89973;-94
2022/06/19 07:01:33;;;;;;;6.28;4.43;;;24.70;95.70;;;;;;6213767;28;87202;-96
2022/06/19 07:04:35;;;;;;;5.22;4.57;;;24.70;96.00;;;;;;6214062;28;88022;-96
2022/06/19 07:07:37;;;;;;;6.03;5.43;;;24.70;96.30;;;;;;6214718;28;88267;-96
2022/06/19 07:10:39;;;;;;;5.82;5.30;;;24.70;99.10;;;;;;6214144;28;87694;-96
2022/06/19 07:21:24;;;;;;;5.60;5.00;;;25.00;97.80;;;;;;6231009;28;87797;-96
2022/06/19 07:27:42;;;;;;;5.43;5.00;;;25.10;97.40;;;;;;6219550;28;90565;-96
2022/06/19 08:03:21;;;;;;;5.38;4.88;;;24.90;97.60;;;;;;6186690;28;90303;-95
2022/06/19 08:06:25;;;;;;;7.07;5.00;;;25.00;97.50;;;;;;6189489;28;90119;-94
2022/06/19 08:09:27;;;;;;;5.40;4.90;;;25.00;97.70;;;;;;6200985;28;89345;-95
2022/06/19 08:12:29;;;;;;;8.50;5.68;;;24.90;97.70;;;;;;6193336;28;89114;-94
2022/06/19 08:30:50;;;;;;;12.07;7.40;;;24.90;99.90;;;;;;6201322;28;88807;-93
2022/06/19 08:37:11;;;;;;;10.35;6.97;;;25.00;99.90;;;;;;6193047;28;90315;-94
2022/06/19 08:40:35;;;;;;;12.63;7.00;;;24.90;99.90;;;;;;6185560;28;89085;-94
2022/06/19 08:44:05;;;;;;;8.60;6.45;;;24.90;99.90;;;;;;6183300;28;89325;-94
2022/06/19 08:47:42;;;;;;;24.33;11.90;;;24.90;99.90;;;;;;6186052;28;89004;-94
2022/06/19 08:50:51;;;;;;;137.80;83.90;;;25.00;99.90;;;;;;6163280;28;89130;-94
2022/06/19 08:54:13;;;;;;;115.90;71.23;;;25.10;99.90;;;;;;6188648;28;88243;-94
2022/06/19 08:57:24;;;;;;;75.18;46.45;;;25.20;99.90;;;;;;6194184;28;89582;-95
2022/06/19 09:00:33;;;;;;;67.03;41.22;;;25.30;99.90;;;;;;6209530;28;89646;-94
2022/06/19 09:07:17;;;;;;;53.55;31.70;;;25.40;99.90;;;;;;6211425;28;87026;-95
2022/06/19 09:17:27;;;;;;;36.17;21.95;;;25.50;99.90;;;;;;6209980;28;89415;-96
2022/06/19 09:20:39;;;;;;;34.80;21.33;;;25.50;99.90;;;;;;6211245;28;89257;-96
2022/06/19 09:27:21;;;;;;;35.92;20.85;;;25.50;99.90;;;;;;6210986;28;90519;-95
2022/06/19 09:33:55;;;;;;;30.83;18.90;;;25.40;99.90;;;;;;6212817;28;89270;-95
2022/06/19 09:37:16;;;;;;;32.35;18.95;;;25.40;99.90;;;;;;6215194;28;87054;-96
2022/06/19 09:40:22;;;;;;;29.45;18.85;;;25.40;99.90;;;;;;6211513;28;89556;-95
2022/06/19 09:43:29;;;;;;;27.90;17.23;;;25.40;99.90;;;;;;6210660;28;87994;-96
2022/06/19 09:50:07;;;;;;;26.98;16.77;;;25.30;99.90;;;;;;6211277;28;90705;-96
2022/06/19 09:53:15;;;;;;;27.95;16.38;;;25.30;99.90;;;;;;6208888;28;88327;-95
2022/06/19 09:56:32;;;;;;;33.30;15.52;;;25.30;99.90;;;;;;6208499;28;87170;-96
2022/06/19 09:59:41;;;;;;;23.92;14.77;;;25.30;99.90;;;;;;6210418;28;87270;-95
2022/06/19 10:02:47;;;;;;;22.88;14.52;;;25.30;99.90;;;;;;6211197;28;88312;-95
2022/06/19 10:05:54;;;;;;;25.50;14.73;;;25.30;99.90;;;;;;6210566;28;87440;-96
2022/06/19 10:09:03;;;;;;;23.13;12.98;;;25.30;99.90;;;;;;6213499;28;87331;-96
2022/06/19 10:12:11;;;;;;;21.30;12.52;;;25.30;99.90;;;;;;6211505;28;87916;-95
2022/06/19 16:05:40;;;;;;;7.38;4.28;;;25.30;99.90;;;;;;6257024;22;86986;-67
2022/06/19 16:08:46;;;;;;;7.88;4.40;;;25.30;99.90;;;;;;6271696;27;88332;-67
2022/06/19 16:11:54;;;;;;;5.82;4.40;;;25.40;99.90;;;;;;6267981;27;87964;-67
2022/06/19 16:15:17;;;;;;;6.28;4.43;;;25.30;99.90;;;;;;6278648;27;89129;-66
2022/06/19 16:18:25;;;;;;;6.10;4.55;;;25.30;99.90;;;;;;6260794;27;90088;-67
2022/06/19 16:21:30;;;;;;;5.95;4.07;;;25.30;99.90;;;;;;6264547;27;89071;-67
2022/06/19 16:24:38;;;;;;;7.00;4.63;;;25.30;99.90;;;;;;6281237;27;89172;-67
2022/06/19 16:27:40;;;;;;;6.22;4.30;;;25.30;99.90;;;;;;6266663;27;89052;-68
2022/06/19 16:30:46;;;;;;;6.82;4.28;;;25.30;99.90;;;;;;6279255;27;88027;-67
2022/06/19 16:33:51;;;;;;;7.90;4.75;;;25.30;99.90;;;;;;6274568;27;89150;-67
2022/06/19 16:44:07;;;;;;;6.70;4.05;;;25.30;99.90;;;;;;6265925;27;87355;-68
2022/06/19 16:47:11;;;;;;;6.85;4.25;;;25.30;99.90;;;;;;6268599;27;89071;-68
2022/06/19 16:50:15;;;;;;;6.38;4.38;;;25.30;99.90;;;;;;6263657;27;90032;-67
2022/06/19 16:53:20;;;;;;;5.82;4.25;;;25.30;99.90;;;;;;6264284;27;88279;-67
2022/06/19 16:56:27;;;;;;;6.07;4.15;;;25.30;99.90;;;;;;6271682;27;89062;-68
2022/06/19 16:59:29;;;;;;;5.22;3.92;;;25.30;99.90;;;;;;6271506;27;89022;-67
2022/06/19 17:02:35;;;;;;;5.78;4.18;;;25.30;99.90;;;;;;6263529;27;89022;-67
2022/06/19 17:05:43;;;;;;;7.65;4.53;;;25.40;99.90;;;;;;6260661;27;89401;-68
2022/06/19 17:08:49;;;;;;;158.95;66.70;;;25.30;99.90;;;;;;6273589;27;89106;-70
2022/06/19 17:11:57;;;;;;;442.07;154.60;;;25.40;99.90;;;;;;6252926;27;88419;-68
2022/06/19 17:15:04;;;;;;;184.65;57.60;;;25.50;99.90;;;;;;6257013;27;87854;-67
2022/06/19 17:18:06;;;;;;;122.72;38.67;;;25.50;99.90;;;;;;6259693;27;89079;-67
2022/06/19 17:21:15;;;;;;;106.57;34.05;;;25.60;99.90;;;;;;6274674;27;90035;-67
2022/06/19 17:24:26;;;;;;;91.13;30.02;;;25.60;99.90;;;;;;6271641;27;89159;-68
2022/06/19 17:27:30;;;;;;;82.50;28.20;;;25.60;99.90;;;;;;6269742;27;89104;-68
2022/06/19 17:30:36;;;;;;;77.57;26.88;;;25.70;99.90;;;;;;6274448;27;89121;-66
2022/06/19 17:33:40;;;;;;;68.03;23.77;;;25.70;99.90;;;;;;6253248;27;89287;-67
2022/06/19 17:36:42;;;;;;;61.53;21.75;;;25.70;99.90;;;;;;6279427;27;89079;-67
2022/06/19 17:39:50;;;;;;;59.97;21.42;;;25.70;99.90;;;;;;6262666;27;89205;-67
2022/06/19 17:42:57;;;;;;;59.28;21.48;;;25.60;99.90;;;;;;6252348;27;88335;-67
2022/06/19 17:46:01;;;;;;;53.65;20.83;;;25.60;99.90;;;;;;6270470;27;89249;-67
2022/06/19 17:49:06;;;;;;;50.58;19.90;;;25.60;99.90;;;;;;6267171;27;89310;-67
2022/06/19 17:52:21;;;;;;;49.67;19.02;;;25.60;99.90;;;;;;6269449;27;90034;-67
2022/06/19 17:55:38;;;;;;;56.17;19.73;;;25.60;99.90;;;;;;6271915;27;89127;-67
2022/06/19 17:58:51;;;;;;;57.80;19.63;;;25.60;99.90;;;;;;6266020;27;88840;-69
2022/06/19 18:01:56;;;;;;;59.65;20.30;;;25.60;99.90;;;;;;6264024;27;89078;-67
2022/06/19 18:05:03;;;;;;;48.55;18.08;;;25.60;99.90;;;;;;6268315;27;89429;-68
2022/06/19 18:08:08;;;;;;;53.58;18.52;;;25.60;99.90;;;;;;6264261;27;89020;-68
2022/06/19 18:11:15;;;;;;;45.08;18.08;;;25.50;99.90;;;;;;6259462;27;89102;-67
2022/06/19 18:14:20;;;;;;;44.50;18.60;;;25.60;99.90;;;;;;6276417;27;89265;-68
2022/06/19 18:20:41;;;;;;;46.95;17.27;;;25.60;99.90;;;;;;6265434;27;87358;-68
2022/06/19 18:23:44;;;;;;;46.08;17.35;;;25.60;99.90;;;;;;6276077;27;89986;-68
2022/06/19 18:26:50;;;;;;;40.67;17.27;;;25.60;99.90;;;;;;6276218;27;89122;-67
2022/06/19 18:29:55;;;;;;;40.97;16.98;;;25.60;99.90;;;;;;6274265;27;89126;-68
2022/06/19 18:32:59;;;;;;;37.80;15.63;;;25.60;99.90;;;;;;6274629;27;89187;-68
2022/06/19 18:36:01;;;;;;;39.97;16.25;;;25.60;99.90;;;;;;6269064;27;89285;-68
2022/06/19 18:39:06;;;;;;;37.67;15.70;;;25.60;99.90;;;;;;6257443;27;89196;-68
2022/06/19 18:42:13;;;;;;;38.20;15.77;;;25.60;99.90;;;;;;6260191;27;88028;-68
2022/06/19 18:45:15;;;;;;;39.28;15.73;;;25.60;99.90;;;;;;6263112;27;89155;-69
2022/06/19 18:48:20;;;;;;;36.75;15.13;;;25.60;99.90;;;;;;6265528;27;89447;-67
2022/06/19 18:51:22;;;;;;;38.38;14.70;;;25.70;99.90;;;;;;6260131;27;89046;-69
2022/06/19 18:54:28;;;;;;;37.22;14.80;;;25.70;99.90;;;;;;6260801;27;90082;-68
2022/06/19 18:57:31;;;;;;;37.83;14.80;;;25.70;99.90;;;;;;6257321;27;89075;-68
2022/06/19 19:00:34;;;;;;;33.28;13.23;;;25.70;99.90;;;;;;6268002;27;89104;-68
2022/06/19 19:03:36;;;;;;;35.33;14.10;;;25.60;99.90;;;;;;6271181;27;87997;-68
2022/06/19 19:06:39;;;;;;;32.92;13.63;;;25.70;99.90;;;;;;6257486;27;89312;-69
2022/06/19 19:09:43;;;;;;;30.15;14.02;;;25.70;99.90;;;;;;6255529;27;89017;-69
2022/06/19 19:12:47;;;;;;;31.48;13.25;;;25.70;99.90;;;;;;6263045;27;89071;-66
2022/06/19 19:15:49;;;;;;;30.45;14.02;;;25.80;99.90;;;;;;6260914;27;88301;-66
2022/06/19 19:18:53;;;;;;;31.60;13.80;;;25.80;99.90;;;;;;6258076;27;89113;-66
2022/06/19 19:21:55;;;;;;;29.65;13.25;;;25.80;99.90;;;;;;6273655;27;88572;-67
2022/06/19 19:24:58;;;;;;;29.17;13.45;;;25.90;99.90;;;;;;6280081;27;90285;-67
2022/06/19 19:28:03;;;;;;;30.77;13.52;;;25.90;99.90;;;;;;6260468;27;89092;-66
2022/06/19 19:31:08;;;;;;;29.70;13.43;;;25.90;99.90;;;;;;6265550;27;89057;-66
2022/06/19 19:34:10;;;;;;;28.98;12.95;;;26.00;99.90;;;;;;6276114;27;89611;-67
2022/06/19 19:37:13;;;;;;;26.35;12.30;;;25.90;99.90;;;;;;6277278;27;89645;-66
2022/06/19 19:40:16;;;;;;;28.13;12.75;;;25.90;99.90;;;;;;6272976;27;89083;-67
2022/06/19 19:43:22;;;;;;;27.50;12.32;;;25.90;99.90;;;;;;6259197;27;89211;-67
2022/06/19 19:46:32;;;;;;;28.30;13.25;;;25.90;99.90;;;;;;6273163;27;88322;-67
2022/06/19 19:49:34;;;;;;;24.13;11.88;;;25.80;99.90;;;;;;6273471;27;89007;-67
2022/06/19 19:52:36;;;;;;;24.75;12.00;;;25.90;99.90;;;;;;6276008;27;89130;-68
2022/06/19 19:55:38;;;;;;;25.92;11.93;;;25.90;99.90;;;;;;6258223;27;90043;-66
2022/06/19 19:58:44;;;;;;;25.70;12.40;;;25.80;99.90;;;;;;6266428;27;89129;-67
2022/06/19 20:01:46;;;;;;;27.75;12.20;;;25.80;99.90;;;;;;6271964;27;88991;-67
2022/06/19 20:04:48;;;;;;;27.65;11.75;;;25.80;99.90;;;;;;6260347;27;89105;-68
2022/06/19 20:11:10;;;;;;;22.00;11.15;;;25.80;99.90;;;;;;6267181;27;87989;-67
2022/06/19 20:14:14;;;;;;;24.33;11.32;;;25.80;99.90;;;;;;6269319;27;89111;-67
2022/06/19 20:17:17;;;;;;;20.75;11.52;;;25.80;99.90;;;;;;6254522;27;88410;-67
2022/06/19 20:20:19;;;;;;;22.90;11.05;;;25.80;99.90;;;;;;6275344;27;89201;-67
2022/06/19 20:23:33;;;;;;;20.50;10.25;;;25.80;99.90;;;;;;6262511;27;89070;-67
2022/06/19 20:26:39;;;;;;;23.25;10.05;;;25.80;99.90;;;;;;6279182;27;90005;-67
2022/06/19 20:29:49;;;;;;;19.25;10.07;;;25.80;99.90;;;;;;6276489;27;89054;-67
2022/06/19 20:32:54;;;;;;;16.50;9.13;;;25.80;99.90;;;;;;6263165;27;87825;-67
2022/06/19 20:35:56;;;;;;;15.90;8.50;;;25.80;99.90;;;;;;6264146;27;89080;-67
2022/06/19 20:38:59;;;;;;;19.25;8.80;;;25.80;99.90;;;;;;6273387;27;89162;-67
2022/06/19 20:45:24;;;;;;;18.15;8.77;;;25.80;99.90;;;;;;6278125;27;87300;-67
2022/06/19 20:48:26;;;;;;;15.32;8.45;;;25.80;99.90;;;;;;6278037;27;88342;-67
2022/06/19 20:51:28;;;;;;;15.35;9.25;;;25.80;99.90;;;;;;6280626;27;87994;-66
2022/06/19 20:54:31;;;;;;;14.27;8.98;;;25.80;99.90;;;;;;6269813;27;88776;-66
2022/06/19 20:57:33;;;;;;;16.92;8.60;;;25.80;99.90;;;;;;6256965;27;90056;-66
2022/06/19 21:00:39;;;;;;;16.58;8.10;;;25.80;99.90;;;;;;6265394;27;87921;-66
2022/06/19 21:03:41;;;;;;;13.30;7.90;;;25.80;99.90;;;;;;6266195;27;89778;-66
2022/06/19 21:06:43;;;;;;;12.25;7.65;;;25.80;99.90;;;;;;6271098;27;89081;-66
2022/06/19 21:09:45;;;;;;;14.32;7.53;;;25.80;99.90;;;;;;6269085;27;88967;-67
2022/06/19 21:12:47;;;;;;;13.60;7.45;;;25.80;99.90;;;;;;6255580;27;89002;-66
2022/06/19 21:15:52;;;;;;;11.95;7.47;;;25.70;99.90;;;;;;6268068;27;88320;-66
2022/06/19 21:18:54;;;;;;;12.25;6.65;;;25.80;99.90;;;;;;6273278;27;88299;-67
2022/06/19 21:21:56;;;;;;;14.93;7.25;;;25.80;99.90;;;;;;6272696;27;89145;-67
2022/06/19 21:24:59;;;;;;;12.27;7.43;;;25.70;99.90;;;;;;6273794;27;88582;-66
2022/06/19 21:28:04;;;;;;;15.02;7.32;;;25.70;99.90;;;;;;6275291;27;90413;-66
2022/06/19 21:31:07;;;;;;;12.27;6.78;;;25.70;99.90;;;;;;6267827;27;89088;-66
2022/06/19 21:34:11;;;;;;;10.63;6.85;;;25.70;99.90;;;;;;6269316;27;89227;-66
2022/06/19 21:37:14;;;;;;;10.88;6.70;;;25.70;99.90;;;;;;6285042;27;90920;-66
2022/06/19 21:40:20;;;;;;;13.45;7.15;;;25.70;99.90;;;;;;6265355;27;89163;-66
2022/06/19 21:43:26;;;;;;;11.63;6.95;;;25.70;99.90;;;;;;6273233;27;89442;-66
2022/06/19 21:46:32;;;;;;;13.88;7.05;;;25.70;99.90;;;;;;6287848;27;88919;-66
2022/06/19 21:49:34;;;;;;;12.10;6.93;;;25.70;99.90;;;;;;6279360;27;88309;-66
2022/06/19 21:52:36;;;;;;;13.95;7.20;;;25.70;99.90;;;;;;6272929;27;87912;-66
2022/06/19 21:55:42;;;;;;;15.75;7.13;;;25.70;99.90;;;;;;6274849;27;89044;-67
2022/06/19 21:58:46;;;;;;;14.93;6.50;;;25.70;99.90;;;;;;6274778;27;89993;-66
2022/06/19 22:01:54;;;;;;;12.32;6.88;;;25.70;99.90;;;;;;6268263;27;89173;-66
2022/06/19 22:04:56;;;;;;;16.02;8.02;;;25.70;99.90;;;;;;6257184;27;91321;-66
2022/06/19 22:08:02;;;;;;;12.52;6.65;;;25.70;99.90;;;;;;6261149;27;88734;-66
2022/06/19 22:14:28;;;;;;;13.68;6.88;;;25.70;99.90;;;;;;6267808;27;87425;-66
2022/06/19 22:17:31;;;;;;;16.45;7.18;;;25.60;99.90;;;;;;6278679;27;89110;-66
2022/06/19 22:20:34;;;;;;;15.15;7.40;;;25.70;99.90;;;;;;6256015;27;88219;-66
2022/06/19 22:23:37;;;;;;;17.92;7.45;;;25.60;99.90;;;;;;6270763;27;88658;-65
2022/06/19 22:26:40;;;;;;;16.63;8.18;;;25.60;99.90;;;;;;6263793;27;89284;-66
2022/06/19 22:29:42;;;;;;;16.00;7.38;;;25.60;99.90;;;;;;6272655;27;90506;-66
2022/06/19 22:32:45;;;;;;;18.30;7.30;;;25.60;99.90;;;;;;6273545;27;89339;-66
2022/06/19 22:35:48;;;;;;;16.83;7.18;;;25.60;99.90;;;;;;6257496;27;89263;-67
2022/06/19 22:38:53;;;;;;;14.00;6.97;;;25.60;99.90;;;;;;6272670;27;89063;-66
2022/06/19 22:41:58;;;;;;;14.48;7.38;;;25.60;99.90;;;;;;6274980;27;89189;-66
2022/06/19 22:45:00;;;;;;;13.32;6.22;;;25.60;99.90;;;;;;6260267;27;89080;-65
2022/06/19 22:48:04;;;;;;;13.55;6.78;;;25.60;99.90;;;;;;6281339;27;89053;-66
2022/06/19 22:51:07;;;;;;;15.38;7.22;;;25.60;99.90;;;;;;6261482;27;88479;-66
2022/06/19 22:54:09;;;;;;;14.85;6.93;;;25.60;99.90;;;;;;6259597;27;89172;-66
2022/06/19 22:57:16;;;;;;;15.13;7.03;;;25.60;99.90;;;;;;6275588;27;89127;-66
2022/06/19 23:03:41;;;;;;;11.00;6.75;;;25.60;99.90;;;;;;6269590;27;87340;-66
2022/06/19 23:06:44;;;;;;;13.80;7.32;;;25.60;99.90;;;;;;6260549;27;87999;-66
2022/06/19 23:09:46;;;;;;;10.48;6.88;;;25.60;99.90;;;;;;6271611;27;88306;-66
2022/06/19 23:12:48;;;;;;;14.63;7.53;;;25.50;99.90;;;;;;6273516;27;88081;-66
2022/06/19 23:15:52;;;;;;;12.40;7.78;;;25.60;99.90;;;;;;6269821;27;89210;-65
2022/06/19 23:18:56;;;;;;;13.52;7.07;;;25.50;99.90;;;;;;6270120;27;89092;-66
2022/06/19 23:21:59;;;;;;;12.98;6.95;;;25.50;99.90;;;;;;6282212;27;88523;-66
2022/06/19 23:25:01;;;;;;;13.52;6.75;;;25.50;99.90;;;;;;6259414;27;89973;-66
2022/06/19 23:28:04;;;;;;;9.73;6.72;;;25.50;99.90;;;;;;6271306;27;89242;-66
2022/06/19 23:31:06;;;;;;;11.55;6.65;;;25.50;99.90;;;;;;6267940;27;90267;-66
2022/06/19 23:34:10;;;;;;;16.30;7.10;;;25.50;99.90;;;;;;6267727;27;89040;-66
2022/06/19 23:37:16;;;;;;;12.00;7.13;;;25.50;99.90;;;;;;6266871;27;89122;-66
2022/06/19 23:40:19;;;;;;;12.88;6.80;;;25.60;99.90;;;;;;6268023;27;89445;-67
2022/06/19 23:43:21;;;;;;;10.93;6.68;;;25.60;99.90;;;;;;6263219;27;88707;-66
2022/06/19 23:46:26;;;;;;;13.55;7.20;;;25.60;99.90;;;;;;6274298;27;89026;-66
2022/06/19 23:49:29;;;;;;;12.63;7.70;;;25.60;99.90;;;;;;6278171;27;89056;-66
2022/06/19 23:52:31;;;;;;;14.07;6.88;;;25.50;99.90;;;;;;6272459;27;88393;-66
2022/06/19 23:55:34;;;;;;;12.10;7.25;;;25.50;99.90;;;;;;6282733;27;87967;-66
2022/06/19 23:58:38;;;;;;;10.20;6.78;;;25.50;99.90;;;;;;6271042;27;89381;-66
